createdAt,value
2022-11-10T00:02:13.065Z,10.10
2022-11-10T00:04:39.484Z,10.20
2022-11-10T00:07:05.938Z,10.60
2022-11-10T00:09:32.457Z,10.35
2022-11-10T00:11:58.907Z,10.88
2022-11-10T00:14:43.829Z,10.38
2022-11-10T00:17:10.820Z,10.32
2022-11-10T00:19:37.243Z,9.98
2022-11-10T00:22:03.704Z,10.63
2022-11-10T00:24:30.117Z,9.55
2022-11-10T00:26:56.525Z,10.18
2022-11-10T00:29:23.284Z,10.70
2022-11-10T00:31:49.734Z,10.35
2022-11-10T00:34:16.813Z,9.82
2022-11-10T00:36:43.974Z,10.32
2022-11-10T00:39:11.246Z,10.30
2022-11-10T00:41:37.701Z,10.50
2022-11-10T00:44:04.231Z,9.95
2022-11-10T00:46:30.710Z,10.40
2022-11-10T00:48:57.154Z,10.02
2022-11-10T00:51:24.998Z,9.85
2022-11-10T00:53:51.454Z,10.05
2022-11-10T00:56:18.046Z,9.75
2022-11-10T00:58:44.485Z,10.30
2022-11-10T01:01:11.042Z,8.90
2022-11-10T01:03:37.545Z,9.20
2022-11-10T01:06:08.136Z,8.90
2022-11-10T01:08:34.674Z,9.13
2022-11-10T01:11:02.615Z,9.02
2022-11-10T01:13:29.055Z,8.52
2022-11-10T01:15:55.506Z,8.57
2022-11-10T01:18:21.965Z,9.18
2022-11-10T01:20:51.924Z,7.93
2022-11-10T01:23:18.628Z,8.50
2022-11-10T01:25:45.316Z,8.15
2022-11-10T01:28:11.743Z,8.50
2022-11-10T01:30:38.237Z,8.38
2022-11-10T01:33:04.648Z,8.13
2022-11-10T01:35:31.129Z,8.65
2022-11-10T01:37:57.609Z,7.68
2022-11-10T01:40:24.180Z,7.75
2022-11-10T01:42:54.609Z,7.07
2022-11-10T01:45:23.834Z,7.53
2022-11-10T01:47:55.134Z,6.65
2022-11-10T01:50:22.250Z,7.55
2022-11-10T01:52:50.306Z,7.63
2022-11-10T01:55:17.288Z,7.32
2022-11-10T01:57:43.951Z,6.95
2022-11-10T02:00:10.954Z,7.28
2022-11-10T02:02:57.648Z,6.78
2022-11-10T02:05:24.269Z,6.72
2022-11-10T02:07:51.867Z,6.85
2022-11-10T02:10:19.635Z,6.65
2022-11-10T02:12:46.965Z,6.68
2022-11-10T02:15:15.595Z,6.85
2022-11-10T02:17:42.238Z,6.50
2022-11-10T02:20:10.259Z,6.75
2022-11-10T02:22:37.344Z,6.63
2022-11-10T02:25:04.676Z,6.88
2022-11-10T02:27:31.553Z,6.13
2022-11-10T02:29:58.040Z,6.40
2022-11-10T02:32:24.467Z,5.93
2022-11-10T02:34:50.905Z,6.15
2022-11-10T02:37:17.307Z,6.03
2022-11-10T02:39:43.762Z,5.90
2022-11-10T02:42:10.443Z,6.03
2022-11-10T02:44:40.543Z,5.50
2022-11-10T02:47:07.412Z,5.38
2022-11-10T02:49:34.022Z,5.72
2022-11-10T02:52:00.570Z,5.43
2022-11-10T02:54:26.994Z,5.22
2022-11-10T02:56:53.399Z,5.00
2022-11-10T02:59:19.810Z,5.28
2022-11-10T03:01:46.254Z,5.35
2022-11-10T03:04:12.811Z,4.75
2022-11-10T03:06:39.450Z,5.45
2022-11-10T03:09:05.985Z,5.20
2022-11-10T03:11:32.709Z,5.15
2022-11-10T03:14:01.835Z,5.00
2022-11-10T03:16:28.964Z,5.38
2022-11-10T03:18:55.390Z,4.97
2022-11-10T03:21:21.825Z,4.85
2022-11-10T03:23:48.408Z,4.50
2022-11-10T03:26:14.857Z,4.50
2022-11-10T03:28:41.257Z,4.88
2022-11-10T03:31:07.704Z,4.47
2022-11-10T03:33:34.149Z,4.72
2022-11-10T03:36:00.592Z,4.80
2022-11-10T03:38:27.018Z,4.88
2022-11-10T03:43:39.946Z,4.43
2022-11-10T03:46:06.386Z,4.32
2022-11-10T03:48:32.818Z,4.45
2022-11-10T03:50:59.276Z,4.30
2022-11-10T03:53:25.802Z,4.50
2022-11-10T03:55:52.343Z,4.43
2022-11-10T03:58:18.747Z,4.43
2022-11-10T04:00:45.240Z,4.13
2022-11-10T04:03:12.091Z,3.85
2022-11-10T04:06:01.681Z,4.55
2022-11-10T04:08:46.742Z,3.90
2022-11-10T04:11:13.283Z,4.15
2022-11-10T04:13:58.173Z,4.10
2022-11-10T04:16:24.617Z,3.90
2022-11-10T04:18:51.025Z,3.92
2022-11-10T04:21:17.476Z,4.18
2022-11-10T04:23:43.929Z,3.92
2022-11-10T04:26:29.549Z,3.60
2022-11-10T04:28:57.046Z,3.85
2022-11-10T04:31:24.376Z,4.38
2022-11-10T04:33:51.215Z,3.70
2022-11-10T04:36:19.389Z,4.07
2022-11-10T04:38:46.139Z,4.00
2022-11-10T04:41:12.714Z,4.05
2022-11-10T04:43:39.386Z,3.90
2022-11-10T04:46:06.916Z,3.40
2022-11-10T04:48:34.303Z,3.97
2022-11-10T04:51:04.810Z,3.67
2022-11-10T04:53:31.408Z,3.83
2022-11-10T04:55:57.912Z,3.85
2022-11-10T04:58:24.373Z,3.55
2022-11-10T05:00:50.798Z,3.50
2022-11-10T05:03:17.242Z,3.88
2022-11-10T05:05:43.685Z,3.95
2022-11-10T05:08:10.286Z,3.58
2022-11-10T05:10:37.462Z,3.80
2022-11-10T05:13:04.729Z,3.67
2022-11-10T05:15:32.148Z,3.58
2022-11-10T05:17:58.602Z,3.50
2022-11-10T05:20:25.459Z,3.65
2022-11-10T05:23:11.113Z,3.58
2022-11-10T05:25:39.308Z,3.50
2022-11-10T05:28:06.467Z,3.30
2022-11-10T05:30:33.315Z,3.42
2022-11-10T05:32:59.786Z,3.35
2022-11-10T05:35:26.184Z,3.30
2022-11-10T05:37:52.613Z,3.20
2022-11-10T05:40:19.183Z,2.85
2022-11-10T05:42:46.405Z,2.78
2022-11-10T05:45:13.079Z,3.13
2022-11-10T05:47:39.680Z,3.05
2022-11-10T05:50:06.789Z,2.97
2022-11-10T05:52:33.488Z,3.22
2022-11-10T05:54:59.959Z,3.15
2022-11-10T05:57:26.385Z,3.10
2022-11-10T05:59:52.960Z,2.83
2022-11-10T06:02:19.445Z,2.67
2022-11-10T06:04:45.912Z,3.05
2022-11-10T06:07:12.485Z,2.83
2022-11-10T06:09:38.954Z,3.30
2022-11-10T06:12:05.628Z,3.00
2022-11-10T06:14:32.154Z,2.80
2022-11-10T06:16:58.653Z,2.92
2022-11-10T06:19:25.083Z,2.75
2022-11-10T06:21:55.885Z,2.80
2022-11-10T06:24:27.038Z,2.78
2022-11-10T06:26:53.475Z,2.70
2022-11-10T06:29:25.528Z,2.90
2022-11-10T06:31:53.142Z,2.55
2022-11-10T06:34:19.576Z,2.60
2022-11-10T06:36:45.984Z,2.33
2022-11-10T06:39:12.399Z,2.42
2022-11-10T06:41:38.857Z,2.60
2022-11-10T06:44:06.447Z,2.72
2022-11-10T06:46:34.976Z,2.63
2022-11-10T06:49:04.821Z,2.60
2022-11-10T06:51:31.236Z,3.10
2022-11-10T06:53:57.665Z,2.83
2022-11-10T06:56:24.100Z,2.63
2022-11-10T06:58:50.541Z,2.40
2022-11-10T07:01:22.141Z,2.38
2022-11-10T07:04:17.820Z,2.50
2022-11-10T07:06:35.497Z,2.70
2022-11-10T07:09:01.974Z,2.60
2022-11-10T07:11:28.420Z,2.25
2022-11-10T07:13:54.801Z,2.65
2022-11-10T07:16:24.460Z,5.60
2022-11-10T07:18:51.171Z,2.63
2022-11-10T07:21:17.659Z,3.38
2022-11-10T07:23:44.177Z,2.10
2022-11-10T07:26:10.592Z,2.20
2022-11-10T07:28:37.022Z,4.38
2022-11-10T07:31:04.082Z,2.63
2022-11-10T07:33:30.558Z,3.65
2022-11-10T07:35:58.359Z,2.50
2022-11-10T07:38:24.986Z,2.53
2022-11-10T07:40:52.498Z,2.38
2022-11-10T07:43:23.785Z,1.85
2022-11-10T07:45:51.074Z,2.22
2022-11-10T07:48:18.026Z,2.20
2022-11-10T07:50:44.820Z,2.10
2022-11-10T07:53:15.445Z,2.30
2022-11-10T07:55:42.833Z,1.98
2022-11-10T07:58:09.892Z,2.15
2022-11-10T08:00:37.061Z,3.22
2022-11-10T08:03:04.790Z,1.92
2022-11-10T08:05:31.707Z,1.90
2022-11-10T08:07:58.286Z,2.80
2022-11-10T08:10:24.769Z,1.80
2022-11-10T08:12:55.248Z,2.13
2022-11-10T08:15:21.733Z,1.60
2022-11-10T08:17:48.163Z,1.92
2022-11-10T08:20:14.620Z,1.83
2022-11-10T08:22:41.892Z,1.92
2022-11-10T08:25:08.613Z,2.08
2022-11-10T08:27:35.079Z,2.25
2022-11-10T08:30:01.473Z,1.98
2022-11-10T08:32:27.892Z,1.40
2022-11-10T08:34:54.330Z,1.98
2022-11-10T08:37:20.742Z,1.60
2022-11-10T08:39:47.136Z,1.65
2022-11-10T08:42:13.540Z,1.73
2022-11-10T08:44:41.074Z,1.67
2022-11-10T08:47:07.517Z,1.45
2022-11-10T08:49:33.951Z,2.00
2022-11-10T08:52:00.414Z,1.50
2022-11-10T08:54:26.811Z,2.28
2022-11-10T08:56:53.727Z,1.65
2022-11-10T08:59:20.254Z,1.77
2022-11-10T09:01:46.670Z,1.50
2022-11-10T09:04:15.870Z,1.75
2022-11-10T09:06:42.749Z,1.83
2022-11-10T09:09:09.196Z,1.70
2022-11-10T09:11:35.606Z,1.60
2022-11-10T09:14:02.039Z,1.40
2022-11-10T09:16:28.555Z,1.10
2022-11-10T09:18:54.965Z,1.65
2022-11-10T09:21:21.441Z,1.52
2022-11-10T09:23:48.355Z,1.23
2022-11-10T09:26:14.792Z,1.30
2022-11-10T09:28:41.302Z,1.80
2022-11-10T09:31:07.759Z,1.35
2022-11-10T09:33:34.242Z,1.40
2022-11-10T09:36:02.088Z,1.60
2022-11-10T09:38:28.655Z,2.00
2022-11-10T09:41:03.211Z,1.27
2022-11-10T09:43:39.681Z,1.27
2022-11-10T09:46:10.909Z,1.17
2022-11-10T09:48:45.383Z,1.77
2022-11-10T09:51:14.376Z,1.17
2022-11-10T09:53:40.841Z,1.52
2022-11-10T09:56:07.701Z,1.00
2022-11-10T09:58:44.154Z,1.10
2022-11-10T10:01:13.701Z,1.30
2022-11-10T10:03:40.710Z,1.38
2022-11-10T10:06:11.191Z,1.25
2022-11-10T10:08:56.425Z,1.10
2022-11-10T10:11:25.854Z,1.33
2022-11-10T10:14:01.155Z,1.17
2022-11-10T10:16:43.027Z,1.08
2022-11-10T10:19:21.155Z,0.98
2022-11-10T10:22:07.897Z,1.08
2022-11-10T10:24:34.822Z,1.33
2022-11-10T10:27:04.308Z,1.40
2022-11-10T10:29:41.010Z,1.00
2022-11-10T10:32:11.306Z,1.00
2022-11-10T10:34:37.864Z,1.83
2022-11-10T10:37:04.332Z,0.95
2022-11-10T10:39:49.711Z,0.85
2022-11-10T10:42:20.191Z,0.85
2022-11-10T10:45:09.726Z,1.15
2022-11-10T10:47:37.348Z,1.05
2022-11-10T10:50:24.045Z,1.67
2022-11-10T10:53:05.627Z,0.80
2022-11-10T10:55:32.666Z,0.90
2022-11-10T10:58:00.840Z,1.00
2022-11-10T11:00:27.576Z,1.05
2022-11-10T11:03:04.741Z,1.23
2022-11-10T11:05:31.506Z,1.10
2022-11-10T11:07:59.025Z,1.45
2022-11-10T11:10:27.369Z,1.08
2022-11-10T11:12:53.801Z,1.15
2022-11-10T11:15:28.472Z,1.40
2022-11-10T11:17:56.119Z,1.60
2022-11-10T11:20:27.859Z,0.77
2022-11-10T11:23:00.382Z,1.00
2022-11-10T11:25:33.425Z,1.05
2022-11-10T11:28:06.238Z,1.17
2022-11-10T11:30:58.798Z,1.20
2022-11-10T11:33:25.951Z,1.10
2022-11-10T11:36:03.316Z,0.60
2022-11-10T11:38:39.089Z,1.15
2022-11-10T11:41:28.628Z,0.90
2022-11-10T11:44:00.988Z,0.50
2022-11-10T11:49:02.609Z,0.98
2022-11-10T11:51:29.077Z,0.60
2022-11-10T11:54:13.862Z,1.02
2022-11-10T11:56:42.554Z,0.82
2022-11-10T11:59:39.526Z,0.77
2022-11-10T12:02:31.569Z,0.70
2022-11-10T12:05:07.110Z,1.10
2022-11-10T12:07:54.935Z,0.70
2022-11-10T12:10:21.376Z,1.20
2022-11-10T12:13:03.401Z,0.88
2022-11-10T12:15:38.696Z,1.10
2022-11-10T12:18:12.672Z,1.00
2022-11-10T12:20:51.212Z,0.82
2022-11-10T12:23:23.617Z,0.82
2022-11-10T12:26:08.847Z,0.57
2022-11-10T12:28:38.012Z,0.60
2022-11-10T12:31:06.346Z,0.82
2022-11-10T12:33:44.680Z,0.80
2022-11-10T12:36:12.925Z,0.90
2022-11-10T12:38:44.883Z,0.88
2022-11-10T12:41:14.344Z,0.80
2022-11-10T12:43:46.558Z,0.80
2022-11-10T12:46:13.256Z,0.60
2022-11-10T12:49:00.768Z,1.30
2022-11-10T12:51:31.092Z,1.13
2022-11-10T12:53:57.590Z,0.70
2022-11-10T12:56:37.670Z,1.45
2022-11-10T12:59:22.694Z,1.55
2022-11-10T13:01:50.218Z,1.65
2022-11-10T13:04:18.333Z,2.47
2022-11-10T13:06:49.278Z,1.85
2022-11-10T13:09:41.847Z,2.00
2022-11-10T13:14:34.705Z,2.35
2022-11-10T13:17:01.220Z,2.38
2022-11-10T13:19:27.600Z,2.42
2022-11-10T13:22:00.739Z,1.23
2022-11-10T13:24:40.874Z,2.85
2022-11-10T13:27:12.508Z,2.53
2022-11-10T13:29:47.956Z,2.35
2022-11-10T13:32:14.530Z,1.83
2022-11-10T13:34:42.054Z,1.75
2022-11-10T13:37:27.135Z,2.83
2022-11-10T13:39:53.762Z,2.53
2022-11-10T13:42:23.312Z,4.07
2022-11-10T13:44:51.665Z,1.98
2022-11-10T13:47:35.098Z,1.80
2022-11-10T13:50:01.569Z,1.85
2022-11-10T13:52:46.473Z,1.48
2022-11-10T13:55:24.515Z,2.58
2022-11-10T13:57:59.881Z,2.25
2022-11-10T14:00:31.224Z,2.83
2022-11-10T14:02:58.761Z,1.80
2022-11-10T14:05:42.130Z,1.85
2022-11-10T14:08:13.293Z,1.75
2022-11-10T14:10:45.469Z,2.38
2022-11-10T14:13:14.883Z,1.95
2022-11-10T14:15:43.544Z,1.95
2022-11-10T14:18:35.908Z,2.10
2022-11-10T14:21:02.975Z,2.17
2022-11-10T14:23:31.637Z,1.50
2022-11-10T14:26:03.575Z,1.52
2022-11-10T14:28:34.159Z,2.15
2022-11-10T14:31:00.662Z,1.88
2022-11-10T14:33:27.494Z,1.83
2022-11-10T14:35:56.323Z,1.80
2022-11-10T14:38:24.687Z,1.42
2022-11-10T14:40:55.450Z,1.17
2022-11-10T14:43:29.902Z,1.20
2022-11-10T14:45:56.677Z,2.03
2022-11-10T14:48:24.632Z,1.67
2022-11-10T14:50:51.885Z,1.83
2022-11-10T14:53:26.335Z,1.50
2022-11-10T14:55:54.961Z,0.85
2022-11-10T14:58:26.380Z,0.93
2022-11-10T15:00:53.397Z,1.60
2022-11-10T15:03:38.460Z,2.20
2022-11-10T15:06:07.490Z,1.20
2022-11-10T15:08:37.592Z,1.10
2022-11-10T15:11:04.128Z,1.10
2022-11-10T15:13:33.683Z,1.30
2022-11-10T15:16:18.772Z,1.20
2022-11-10T15:18:47.634Z,2.25
2022-11-10T15:21:16.197Z,0.85
2022-11-10T15:23:44.218Z,1.42
2022-11-10T15:26:21.825Z,1.15
2022-11-10T15:28:48.651Z,0.95
2022-11-10T15:31:31.485Z,3.20
2022-11-10T15:33:59.404Z,1.23
2022-11-10T15:36:33.828Z,1.60
2022-11-10T15:39:03.149Z,1.42
2022-11-10T15:41:30.933Z,1.00
2022-11-10T15:43:57.347Z,1.55
2022-11-10T15:46:26.749Z,2.35
2022-11-10T15:48:53.289Z,1.55
2022-11-10T15:51:24.662Z,1.33
2022-11-10T15:53:53.441Z,1.88
2022-11-10T15:56:21.458Z,2.00
2022-11-10T15:58:51.829Z,1.92
2022-11-10T16:01:18.475Z,2.30
2022-11-10T16:03:45.465Z,1.45
2022-11-10T16:06:13.607Z,1.88
2022-11-10T16:08:40.331Z,1.63
2022-11-10T16:11:10.292Z,2.05
2022-11-10T16:13:36.712Z,1.60
2022-11-10T16:16:03.571Z,1.50
2022-11-10T16:18:30.887Z,2.05
2022-11-10T16:20:57.336Z,1.98
2022-11-10T16:23:24.367Z,2.40
2022-11-10T16:25:51.969Z,1.98
2022-11-10T16:28:20.885Z,2.28
2022-11-10T16:30:47.498Z,1.95
2022-11-10T16:33:15.085Z,1.65
2022-11-10T16:35:41.633Z,2.25
2022-11-10T16:38:13.180Z,1.63
2022-11-10T16:40:39.605Z,2.70
2022-11-10T16:43:11.616Z,1.50
2022-11-10T16:45:41.919Z,2.22
2022-11-10T16:48:08.374Z,1.48
2022-11-10T16:50:36.044Z,2.30
2022-11-10T16:53:04.368Z,1.80
2022-11-10T16:55:31.478Z,2.83
2022-11-10T16:57:58.060Z,2.10
2022-11-10T17:00:24.782Z,1.60
2022-11-10T17:02:54.221Z,2.67
2022-11-10T17:05:20.749Z,2.28
2022-11-10T17:07:47.439Z,2.40
2022-11-10T17:10:17.960Z,2.30
2022-11-10T17:12:44.453Z,2.95
2022-11-10T17:15:15.343Z,1.92
2022-11-10T17:17:45.556Z,1.90
2022-11-10T17:20:22.710Z,1.77
2022-11-10T17:22:49.916Z,1.98
2022-11-10T17:25:21.687Z,2.45
2022-11-10T17:27:48.282Z,2.15
2022-11-10T17:30:15.248Z,2.60
2022-11-10T17:33:04.370Z,3.28
2022-11-10T17:35:28.709Z,3.67
2022-11-10T17:37:57.129Z,3.13
2022-11-10T17:40:28.010Z,3.70
2022-11-10T17:42:54.576Z,3.53
2022-11-10T17:45:22.851Z,4.22
2022-11-10T17:47:49.787Z,4.40
2022-11-10T17:50:17.630Z,4.30
2022-11-10T17:52:44.219Z,4.63
2022-11-10T17:55:18.279Z,5.45
2022-11-10T17:57:44.786Z,6.30
2022-11-10T18:00:11.674Z,6.60
2022-11-10T18:02:38.114Z,5.60
2022-11-10T18:05:06.288Z,5.63
2022-11-10T18:07:32.923Z,6.13
2022-11-10T18:09:59.381Z,6.43
2022-11-10T18:12:28.075Z,7.03
2022-11-10T18:14:54.656Z,7.00
2022-11-10T18:17:21.078Z,6.47
2022-11-10T18:19:47.601Z,6.85
2022-11-10T18:22:14.034Z,7.50
2022-11-10T18:24:40.505Z,7.10
2022-11-10T18:27:07.000Z,7.38
2022-11-10T18:29:33.454Z,7.00
2022-11-10T18:31:59.901Z,6.40
2022-11-10T18:34:26.328Z,6.72
2022-11-10T18:36:52.802Z,7.20
2022-11-10T18:39:19.293Z,7.20
2022-11-10T18:41:48.760Z,8.18
2022-11-10T18:44:15.777Z,6.72
2022-11-10T18:46:43.267Z,8.50
2022-11-10T18:49:09.758Z,7.85
2022-11-10T18:51:36.393Z,7.25
2022-11-10T18:54:02.872Z,8.20
2022-11-10T18:56:29.341Z,8.70
2022-11-10T18:58:57.099Z,7.38
2022-11-10T19:01:23.944Z,9.00
2022-11-10T19:03:50.787Z,8.30
2022-11-10T19:06:17.497Z,8.82
2022-11-10T19:08:44.142Z,8.43
2022-11-10T19:11:11.756Z,8.10
2022-11-10T19:13:38.397Z,8.93
2022-11-10T19:16:06.343Z,8.48
2022-11-10T19:18:32.810Z,7.82
2022-11-10T19:21:03.988Z,8.48
2022-11-10T19:23:30.712Z,9.38
2022-11-10T19:26:22.150Z,9.02
2022-11-10T19:28:49.547Z,7.60
2022-11-10T19:31:17.091Z,9.27
2022-11-10T19:33:44.402Z,8.15
2022-11-10T19:36:12.280Z,8.38
2022-11-10T19:38:38.762Z,8.15
2022-11-10T19:41:07.062Z,8.30
2022-11-10T19:43:33.655Z,8.52
2022-11-10T19:46:03.970Z,8.23
2022-11-10T19:48:34.129Z,7.97
2022-11-10T19:51:01.394Z,8.38
2022-11-10T19:53:28.292Z,8.27
2022-11-10T19:55:59.972Z,9.88
2022-11-10T19:58:26.533Z,8.65
2022-11-10T20:00:54.103Z,8.43
2022-11-10T20:03:21.088Z,8.23
2022-11-10T20:05:48.109Z,7.72
2022-11-10T20:08:15.544Z,8.32
2022-11-10T20:10:42.892Z,7.00
2022-11-10T20:13:12.722Z,7.72
2022-11-10T20:15:40.219Z,8.20
2022-11-10T20:18:07.939Z,6.78
2022-11-10T20:20:34.545Z,7.53
2022-11-10T20:23:02.024Z,7.43
2022-11-10T20:25:28.638Z,6.75
2022-11-10T20:27:55.204Z,6.72
2022-11-10T20:30:23.837Z,6.85
2022-11-10T20:32:50.905Z,6.90
2022-11-10T20:35:17.456Z,7.18
2022-11-10T20:37:44.031Z,6.90
2022-11-10T20:40:42.368Z,6.70
2022-11-10T20:42:59.470Z,6.50
2022-11-10T20:45:25.901Z,6.30
2022-11-10T20:47:52.337Z,6.68
2022-11-10T20:50:23.997Z,6.25
2022-11-10T20:52:50.945Z,6.72
2022-11-10T20:55:18.451Z,6.95
2022-11-10T20:57:45.177Z,6.28
2022-11-10T21:00:12.109Z,7.60
2022-11-10T21:02:38.579Z,6.45
2022-11-10T21:05:05.961Z,6.50
2022-11-10T21:07:32.472Z,6.18
2022-11-10T21:09:59.006Z,6.40
2022-11-10T21:12:44.188Z,5.85
2022-11-10T21:15:11.755Z,6.03
2022-11-10T21:17:42.938Z,6.60
2022-11-10T21:22:36.839Z,5.80
2022-11-10T21:25:03.357Z,6.30
2022-11-10T21:27:30.021Z,6.00
2022-11-10T21:29:56.476Z,6.07
2022-11-10T21:32:22.998Z,5.97
2022-11-10T21:34:49.388Z,6.05
2022-11-10T21:37:15.890Z,5.40
2022-11-10T21:39:44.141Z,6.18
2022-11-10T21:42:10.723Z,5.95
2022-11-10T21:44:37.299Z,5.32
2022-11-10T21:47:03.768Z,5.43
2022-11-10T21:49:30.187Z,5.45
2022-11-10T21:51:56.602Z,5.85
2022-11-10T21:54:23.244Z,5.50
2022-11-10T21:56:50.294Z,5.32
2022-11-10T21:59:16.850Z,5.30
2022-11-10T22:01:43.285Z,5.03
2022-11-10T22:04:09.834Z,5.43
2022-11-10T22:06:55.150Z,5.45
2022-11-10T22:09:41.566Z,5.10
2022-11-10T22:12:29.859Z,4.78
2022-11-10T22:15:14.935Z,5.68
2022-11-10T22:17:59.947Z,4.55
2022-11-10T22:20:26.430Z,4.97
2022-11-10T22:22:53.061Z,5.35
2022-11-10T22:25:19.525Z,5.35
2022-11-10T22:27:45.985Z,5.55
2022-11-10T22:30:12.785Z,4.80
2022-11-10T22:32:39.165Z,4.72
2022-11-10T22:35:05.952Z,4.57
2022-11-10T22:37:33.148Z,5.07
2022-11-10T22:40:18.697Z,4.97
2022-11-10T22:43:03.875Z,4.85
2022-11-10T22:45:30.473Z,5.75
2022-11-10T22:48:15.687Z,5.00
2022-11-10T22:50:42.119Z,4.97
2022-11-10T22:53:08.540Z,4.75
2022-11-10T22:55:34.979Z,4.30
2022-11-10T22:58:01.539Z,4.63
2022-11-10T23:00:27.986Z,4.43
2022-11-10T23:02:54.397Z,5.38
2022-11-10T23:05:21.307Z,5.15
2022-11-10T23:07:48.578Z,4.63
2022-11-10T23:10:15.054Z,4.45
2022-11-10T23:12:41.466Z,4.78
2022-11-10T23:15:08.228Z,5.75
2022-11-10T23:17:34.607Z,5.05
2022-11-10T23:20:01.063Z,4.82
2022-11-10T23:22:28.104Z,4.65
2022-11-10T23:24:57.288Z,5.40
2022-11-10T23:27:23.941Z,5.28
2022-11-10T23:29:51.842Z,6.10
2022-11-10T23:32:18.287Z,5.20
2022-11-10T23:34:47.483Z,5.40
2022-11-10T23:37:13.980Z,4.97
2022-11-10T23:39:40.609Z,5.55
2022-11-10T23:42:10.263Z,5.90
2022-11-10T23:44:36.910Z,6.80
2022-11-10T23:47:03.790Z,6.82
2022-11-10T23:49:30.530Z,5.40
2022-11-10T23:51:57.125Z,5.38
2022-11-10T23:54:26.215Z,6.43
2022-11-10T23:56:53.074Z,6.32
2022-11-10T23:59:19.891Z,6.97
